Main page
METAR-TAF:

Airports :

Tehran, Iran

Mehrabad International Airport

latitude: 35-41N, longitude: 051-21E, elevation: 1204 m

Current weather observation

The report was made 28 minutes ago, at 05:00 UTC
Wind 4 kt from the Southwest
Temperature 0°C
Humidity 64%
Pressure 1020 hPa
Visibility: 4000 m
haze

METAR: OIII 120500Z 23004KT 8000 4000SE HZ NSC 00/M06 Q1019 A3011 NOSIG

Time: 08:58 (05:28 UTC)

Forecast

The report was made 6 hours and 18 minutes ago, at 23:10 UTC
Forecast valid from 12 at 00 UTC to 13 at 06 UTC
Wind 8 kt from the West/Southwest
Visibility 10 km or more
no clouds below 1500 m and no cumulonimbus

TAF: OIII 112310Z 1200/1306 240004MPS CAVOK

METAR-TAF

Weather observations and forecasts of more than 4000 airports (METAR and TAF reports).

The available stations are represented by yellow and red dots on the map.

Hover mouse over dot to see the name of the station.

Then click to see weather observations and forecasts.

To change the map : click on the green buttons with a black cross to zoom in, on the green button with a dash to zoom out, or on the green arrows for adjacent maps.


METAR-TAF: